sensor_id;sensor_type;location;lat;lon;timestamp;P1;durP1;ratioP1;P2;durP2;ratioP2
79074;SDS011;68476;42.710;23.388;2024-01-07T00:01:25;33.42;;;17.73;;
79074;SDS011;68476;42.710;23.388;2024-01-07T00:03:51;28.83;;;18.70;;
79074;SDS011;68476;42.710;23.388;2024-01-07T00:06:17;29.75;;;17.88;;
79074;SDS011;68476;42.710;23.388;2024-01-07T00:08:43;30.02;;;18.08;;
79074;SDS011;68476;42.710;23.388;2024-01-07T00:11:08;31.45;;;18.58;;
79074;SDS011;68476;42.710;23.388;2024-01-07T00:13:34;27.23;;;16.45;;
79074;SDS011;68476;42.710;23.388;2024-01-07T00:15:59;29.38;;;16.80;;
79074;SDS011;68476;42.710;23.388;2024-01-07T00:18:25;31.52;;;18.38;;
79074;SDS011;68476;42.710;23.388;2024-01-07T00:20:52;33.78;;;19.38;;
79074;SDS011;68476;42.710;23.388;2024-01-07T00:23:18;31.98;;;18.55;;
79074;SDS011;68476;42.710;23.388;2024-01-07T00:25:43;30.27;;;18.25;;
79074;SDS011;68476;42.710;23.388;2024-01-07T00:28:09;29.30;;;19.25;;
79074;SDS011;68476;42.710;23.388;2024-01-07T00:30:35;28.42;;;16.13;;
79074;SDS011;68476;42.710;23.388;2024-01-07T00:33:00;29.73;;;18.08;;
79074;SDS011;68476;42.710;23.388;2024-01-07T00:35:26;30.33;;;16.30;;
79074;SDS011;68476;42.710;23.388;2024-01-07T00:37:51;27.33;;;16.98;;
79074;SDS011;68476;42.710;23.388;2024-01-07T00:40:16;27.13;;;15.98;;
79074;SDS011;68476;42.710;23.388;2024-01-07T00:42:42;27.85;;;16.40;;
79074;SDS011;68476;42.710;23.388;2024-01-07T00:45:08;24.88;;;15.35;;
79074;SDS011;68476;42.710;23.388;2024-01-07T00:47:34;24.27;;;15.90;;
79074;SDS011;68476;42.710;23.388;2024-01-07T00:49:59;25.60;;;16.38;;
79074;SDS011;68476;42.710;23.388;2024-01-07T00:52:25;22.92;;;14.55;;
79074;SDS011;68476;42.710;23.388;2024-01-07T00:54:50;27.30;;;15.73;;
79074;SDS011;68476;42.710;23.388;2024-01-07T00:57:16;24.92;;;15.32;;
79074;SDS011;68476;42.710;23.388;2024-01-07T00:59:41;24.63;;;15.30;;
79074;SDS011;68476;42.710;23.388;2024-01-07T01:02:07;14.40;;;8.35;;
79074;SDS011;68476;42.710;23.388;2024-01-07T01:04:32;25.17;;;16.48;;
79074;SDS011;68476;42.710;23.388;2024-01-07T01:06:58;24.30;;;15.32;;
79074;SDS011;68476;42.710;23.388;2024-01-07T01:09:23;28.48;;;16.63;;
79074;SDS011;68476;42.710;23.388;2024-01-07T01:11:48;29.80;;;17.02;;
79074;SDS011;68476;42.710;23.388;2024-01-07T01:14:15;30.52;;;18.92;;
79074;SDS011;68476;42.710;23.388;2024-01-07T01:16:40;32.35;;;19.88;;
79074;SDS011;68476;42.710;23.388;2024-01-07T01:19:06;30.55;;;18.15;;
79074;SDS011;68476;42.710;23.388;2024-01-07T01:21:31;26.27;;;15.27;;
79074;SDS011;68476;42.710;23.388;2024-01-07T01:23:57;35.25;;;20.85;;
79074;SDS011;68476;42.710;23.388;2024-01-07T01:26:23;34.22;;;19.85;;
79074;SDS011;68476;42.710;23.388;2024-01-07T01:28:48;29.27;;;18.38;;
79074;SDS011;68476;42.710;23.388;2024-01-07T01:31:14;32.67;;;18.95;;
79074;SDS011;68476;42.710;23.388;2024-01-07T01:33:40;32.78;;;17.92;;
79074;SDS011;68476;42.710;23.388;2024-01-07T01:36:05;29.33;;;18.00;;
79074;SDS011;68476;42.710;23.388;2024-01-07T01:38:31;34.05;;;18.92;;
79074;SDS011;68476;42.710;23.388;2024-01-07T01:40:57;30.73;;;18.50;;
79074;SDS011;68476;42.710;23.388;2024-01-07T01:43:26;33.08;;;18.98;;
79074;SDS011;68476;42.710;23.388;2024-01-07T01:45:53;29.95;;;18.67;;
79074;SDS011;68476;42.710;23.388;2024-01-07T01:48:19;27.13;;;17.25;;
79074;SDS011;68476;42.710;23.388;2024-01-07T01:50:45;29.75;;;18.52;;
79074;SDS011;68476;42.710;23.388;2024-01-07T01:53:13;30.35;;;17.02;;
79074;SDS011;68476;42.710;23.388;2024-01-07T01:55:39;29.65;;;18.02;;
79074;SDS011;68476;42.710;23.388;2024-01-07T01:58:05;29.17;;;17.88;;
79074;SDS011;68476;42.710;23.388;2024-01-07T02:00:31;29.52;;;18.33;;
79074;SDS011;68476;42.710;23.388;2024-01-07T02:02:56;38.83;;;21.27;;
79074;SDS011;68476;42.710;23.388;2024-01-07T02:05:22;39.65;;;23.05;;
79074;SDS011;68476;42.710;23.388;2024-01-07T02:07:48;45.00;;;26.52;;
79074;SDS011;68476;42.710;23.388;2024-01-07T02:10:14;41.67;;;24.95;;
79074;SDS011;68476;42.710;23.388;2024-01-07T02:12:40;39.08;;;25.67;;
79074;SDS011;68476;42.710;23.388;2024-01-07T02:15:06;45.63;;;29.75;;
79074;SDS011;68476;42.710;23.388;2024-01-07T02:17:31;38.67;;;24.70;;
79074;SDS011;68476;42.710;23.388;2024-01-07T02:19:57;43.45;;;25.73;;
79074;SDS011;68476;42.710;23.388;2024-01-07T02:22:22;34.78;;;22.17;;
79074;SDS011;68476;42.710;23.388;2024-01-07T02:24:48;33.35;;;20.63;;
79074;SDS011;68476;42.710;23.388;2024-01-07T02:27:13;34.65;;;19.73;;
79074;SDS011;68476;42.710;23.388;2024-01-07T02:29:39;29.33;;;20.00;;
79074;SDS011;68476;42.710;23.388;2024-01-07T02:32:05;29.58;;;18.55;;
79074;SDS011;68476;42.710;23.388;2024-01-07T02:34:30;33.50;;;21.00;;
79074;SDS011;68476;42.710;23.388;2024-01-07T02:36:56;33.72;;;22.08;;
79074;SDS011;68476;42.710;23.388;2024-01-07T02:39:23;29.55;;;18.10;;
79074;SDS011;68476;42.710;23.388;2024-01-07T02:41:48;31.35;;;19.33;;
79074;SDS011;68476;42.710;23.388;2024-01-07T02:44:15;30.00;;;17.63;;
79074;SDS011;68476;42.710;23.388;2024-01-07T02:46:40;32.63;;;18.77;;
79074;SDS011;68476;42.710;23.388;2024-01-07T02:49:07;28.92;;;16.95;;
79074;SDS011;68476;42.710;23.388;2024-01-07T02:51:32;31.67;;;17.85;;
79074;SDS011;68476;42.710;23.388;2024-01-07T02:53:58;25.48;;;17.02;;
79074;SDS011;68476;42.710;23.388;2024-01-07T02:56:23;32.08;;;19.33;;
79074;SDS011;68476;42.710;23.388;2024-01-07T02:58:48;33.13;;;18.02;;
79074;SDS011;68476;42.710;23.388;2024-01-07T03:01:14;32.08;;;18.95;;
79074;SDS011;68476;42.710;23.388;2024-01-07T03:03:39;28.23;;;18.60;;
79074;SDS011;68476;42.710;23.388;2024-01-07T03:06:05;29.40;;;17.80;;
79074;SDS011;68476;42.710;23.388;2024-01-07T03:08:31;30.45;;;18.15;;
79074;SDS011;68476;42.710;23.388;2024-01-07T03:10:56;27.08;;;16.85;;
79074;SDS011;68476;42.710;23.388;2024-01-07T03:13:22;33.83;;;19.65;;
79074;SDS011;68476;42.710;23.388;2024-01-07T03:15:47;36.70;;;22.52;;
79074;SDS011;68476;42.710;23.388;2024-01-07T03:18:12;37.03;;;22.27;;
79074;SDS011;68476;42.710;23.388;2024-01-07T03:20:38;30.15;;;19.45;;
79074;SDS011;68476;42.710;23.388;2024-01-07T03:23:03;29.73;;;19.27;;
79074;SDS011;68476;42.710;23.388;2024-01-07T03:25:29;29.20;;;18.10;;
79074;SDS011;68476;42.710;23.388;2024-01-07T03:27:54;28.23;;;17.83;;
79074;SDS011;68476;42.710;23.388;2024-01-07T03:30:20;27.50;;;17.35;;
79074;SDS011;68476;42.710;23.388;2024-01-07T03:32:45;29.02;;;17.50;;
79074;SDS011;68476;42.710;23.388;2024-01-07T03:35:11;29.15;;;17.33;;
79074;SDS011;68476;42.710;23.388;2024-01-07T03:37:36;29.02;;;17.35;;
79074;SDS011;68476;42.710;23.388;2024-01-07T03:40:02;28.30;;;17.40;;
79074;SDS011;68476;42.710;23.388;2024-01-07T03:42:28;24.70;;;15.45;;
79074;SDS011;68476;42.710;23.388;2024-01-07T03:44:53;31.95;;;17.40;;
79074;SDS011;68476;42.710;23.388;2024-01-07T03:47:19;25.73;;;15.23;;
79074;SDS011;68476;42.710;23.388;2024-01-07T03:49:44;26.95;;;17.15;;
79074;SDS011;68476;42.710;23.388;2024-01-07T03:52:10;23.77;;;14.77;;
79074;SDS011;68476;42.710;23.388;2024-01-07T03:54:35;22.20;;;14.68;;
79074;SDS011;68476;42.710;23.388;2024-01-07T03:57:01;21.98;;;12.65;;
79074;SDS011;68476;42.710;23.388;2024-01-07T03:59:26;25.10;;;14.20;;
79074;SDS011;68476;42.710;23.388;2024-01-07T04:01:56;21.17;;;12.48;;
79074;SDS011;68476;42.710;23.388;2024-01-07T04:04:22;18.55;;;11.82;;
79074;SDS011;68476;42.710;23.388;2024-01-07T04:06:48;18.83;;;11.50;;
79074;SDS011;68476;42.710;23.388;2024-01-07T04:09:13;17.48;;;11.82;;
79074;SDS011;68476;42.710;23.388;2024-01-07T04:11:39;16.25;;;10.20;;
79074;SDS011;68476;42.710;23.388;2024-01-07T04:14:06;13.00;;;9.55;;
79074;SDS011;68476;42.710;23.388;2024-01-07T04:16:31;13.63;;;8.65;;
79074;SDS011;68476;42.710;23.388;2024-01-07T04:18:57;12.80;;;8.48;;
79074;SDS011;68476;42.710;23.388;2024-01-07T04:21:22;13.23;;;8.43;;
79074;SDS011;68476;42.710;23.388;2024-01-07T04:23:48;15.10;;;10.23;;
79074;SDS011;68476;42.710;23.388;2024-01-07T04:26:13;15.65;;;10.30;;
79074;SDS011;68476;42.710;23.388;2024-01-07T04:28:41;15.90;;;10.73;;
79074;SDS011;68476;42.710;23.388;2024-01-07T04:31:07;19.48;;;12.48;;
79074;SDS011;68476;42.710;23.388;2024-01-07T04:33:33;21.42;;;12.73;;
79074;SDS011;68476;42.710;23.388;2024-01-07T04:35:58;20.55;;;12.82;;
79074;SDS011;68476;42.710;23.388;2024-01-07T04:38:25;19.23;;;12.02;;
79074;SDS011;68476;42.710;23.388;2024-01-07T04:40:51;18.48;;;11.73;;
79074;SDS011;68476;42.710;23.388;2024-01-07T04:43:17;19.73;;;12.43;;
79074;SDS011;68476;42.710;23.388;2024-01-07T04:45:43;19.42;;;12.80;;
79074;SDS011;68476;42.710;23.388;2024-01-07T04:48:09;21.17;;;11.95;;
79074;SDS011;68476;42.710;23.388;2024-01-07T04:50:34;20.20;;;12.13;;
79074;SDS011;68476;42.710;23.388;2024-01-07T04:53:00;24.95;;;12.93;;
79074;SDS011;68476;42.710;23.388;2024-01-07T04:55:35;24.05;;;14.02;;
79074;SDS011;68476;42.710;23.388;2024-01-07T04:58:01;24.80;;;13.77;;
79074;SDS011;68476;42.710;23.388;2024-01-07T05:00:27;16.38;;;11.18;;
79074;SDS011;68476;42.710;23.388;2024-01-07T05:02:52;22.02;;;12.85;;
79074;SDS011;68476;42.710;23.388;2024-01-07T05:05:18;20.33;;;12.40;;
79074;SDS011;68476;42.710;23.388;2024-01-07T05:07:43;13.93;;;9.10;;
79074;SDS011;68476;42.710;23.388;2024-01-07T05:10:09;21.27;;;12.40;;
79074;SDS011;68476;42.710;23.388;2024-01-07T05:12:34;17.60;;;12.27;;
79074;SDS011;68476;42.710;23.388;2024-01-07T05:15:00;17.58;;;11.73;;
79074;SDS011;68476;42.710;23.388;2024-01-07T05:17:25;17.80;;;11.40;;
79074;SDS011;68476;42.710;23.388;2024-01-07T05:19:51;23.63;;;13.02;;
79074;SDS011;68476;42.710;23.388;2024-01-07T05:22:16;19.80;;;11.73;;
79074;SDS011;68476;42.710;23.388;2024-01-07T05:24:42;18.65;;;10.60;;
79074;SDS011;68476;42.710;23.388;2024-01-07T05:27:08;20.52;;;10.57;;
79074;SDS011;68476;42.710;23.388;2024-01-07T05:29:34;18.20;;;11.05;;
79074;SDS011;68476;42.710;23.388;2024-01-07T05:32:00;20.55;;;12.52;;
79074;SDS011;68476;42.710;23.388;2024-01-07T05:34:27;17.05;;;10.25;;
79074;SDS011;68476;42.710;23.388;2024-01-07T05:36:52;18.70;;;12.05;;
79074;SDS011;68476;42.710;23.388;2024-01-07T05:39:18;20.10;;;13.25;;
79074;SDS011;68476;42.710;23.388;2024-01-07T05:41:44;19.25;;;12.75;;
79074;SDS011;68476;42.710;23.388;2024-01-07T05:44:11;22.98;;;14.18;;
79074;SDS011;68476;42.710;23.388;2024-01-07T05:46:39;18.90;;;13.68;;
79074;SDS011;68476;42.710;23.388;2024-01-07T05:49:05;24.48;;;13.13;;
79074;SDS011;68476;42.710;23.388;2024-01-07T05:51:31;22.67;;;14.02;;
79074;SDS011;68476;42.710;23.388;2024-01-07T05:53:57;22.52;;;13.50;;
79074;SDS011;68476;42.710;23.388;2024-01-07T05:56:22;24.25;;;14.25;;
79074;SDS011;68476;42.710;23.388;2024-01-07T05:58:48;20.33;;;12.88;;
79074;SDS011;68476;42.710;23.388;2024-01-07T06:01:18;21.23;;;12.93;;
79074;SDS011;68476;42.710;23.388;2024-01-07T06:03:45;23.73;;;14.07;;
79074;SDS011;68476;42.710;23.388;2024-01-07T06:06:12;21.75;;;14.90;;
79074;SDS011;68476;42.710;23.388;2024-01-07T06:08:37;17.48;;;10.05;;
79074;SDS011;68476;42.710;23.388;2024-01-07T06:11:03;23.85;;;14.38;;
79074;SDS011;68476;42.710;23.388;2024-01-07T06:13:28;24.73;;;14.50;;
79074;SDS011;68476;42.710;23.388;2024-01-07T06:15:54;26.00;;;15.10;;
79074;SDS011;68476;42.710;23.388;2024-01-07T06:18:20;25.02;;;14.52;;
79074;SDS011;68476;42.710;23.388;2024-01-07T06:20:46;21.10;;;14.23;;
79074;SDS011;68476;42.710;23.388;2024-01-07T06:23:11;22.83;;;13.25;;
79074;SDS011;68476;42.710;23.388;2024-01-07T06:25:37;24.13;;;14.32;;
79074;SDS011;68476;42.710;23.388;2024-01-07T06:28:04;22.55;;;14.57;;
79074;SDS011;68476;42.710;23.388;2024-01-07T06:30:30;22.85;;;13.80;;
79074;SDS011;68476;42.710;23.388;2024-01-07T06:32:55;20.23;;;12.18;;
79074;SDS011;68476;42.710;23.388;2024-01-07T06:35:21;23.73;;;13.32;;
79074;SDS011;68476;42.710;23.388;2024-01-07T06:37:46;23.60;;;14.18;;
79074;SDS011;68476;42.710;23.388;2024-01-07T06:40:12;23.02;;;14.32;;
79074;SDS011;68476;42.710;23.388;2024-01-07T06:42:38;22.77;;;13.10;;
79074;SDS011;68476;42.710;23.388;2024-01-07T06:45:03;21.40;;;13.48;;
79074;SDS011;68476;42.710;23.388;2024-01-07T06:47:29;20.10;;;13.15;;
79074;SDS011;68476;42.710;23.388;2024-01-07T06:49:55;25.25;;;16.33;;
79074;SDS011;68476;42.710;23.388;2024-01-07T06:52:20;25.23;;;14.57;;
79074;SDS011;68476;42.710;23.388;2024-01-07T06:54:46;34.10;;;19.20;;
79074;SDS011;68476;42.710;23.388;2024-01-07T06:57:11;27.55;;;17.58;;
79074;SDS011;68476;42.710;23.388;2024-01-07T06:59:37;20.50;;;14.55;;
79074;SDS011;68476;42.710;23.388;2024-01-07T07:02:02;23.40;;;15.13;;
79074;SDS011;68476;42.710;23.388;2024-01-07T07:04:28;25.05;;;15.25;;
79074;SDS011;68476;42.710;23.388;2024-01-07T07:06:54;24.75;;;15.40;;
79074;SDS011;68476;42.710;23.388;2024-01-07T07:09:19;22.63;;;14.40;;
79074;SDS011;68476;42.710;23.388;2024-01-07T07:11:44;18.83;;;12.90;;
79074;SDS011;68476;42.710;23.388;2024-01-07T07:14:10;20.00;;;12.55;;
79074;SDS011;68476;42.710;23.388;2024-01-07T07:16:35;18.88;;;12.98;;
79074;SDS011;68476;42.710;23.388;2024-01-07T07:19:01;21.73;;;12.43;;
79074;SDS011;68476;42.710;23.388;2024-01-07T07:21:27;23.50;;;13.70;;
79074;SDS011;68476;42.710;23.388;2024-01-07T07:23:52;25.05;;;13.45;;
79074;SDS011;68476;42.710;23.388;2024-01-07T07:26:18;22.50;;;13.90;;
79074;SDS011;68476;42.710;23.388;2024-01-07T07:28:44;22.73;;;14.05;;
79074;SDS011;68476;42.710;23.388;2024-01-07T07:31:10;20.75;;;13.15;;
79074;SDS011;68476;42.710;23.388;2024-01-07T07:33:38;21.95;;;13.40;;
79074;SDS011;68476;42.710;23.388;2024-01-07T07:36:04;20.98;;;14.48;;
79074;SDS011;68476;42.710;23.388;2024-01-07T07:38:30;21.02;;;13.93;;
79074;SDS011;68476;42.710;23.388;2024-01-07T07:40:55;30.08;;;18.60;;
79074;SDS011;68476;42.710;23.388;2024-01-07T07:43:21;24.10;;;15.73;;
79074;SDS011;68476;42.710;23.388;2024-01-07T07:45:47;26.38;;;16.15;;
79074;SDS011;68476;42.710;23.388;2024-01-07T07:48:12;28.73;;;17.20;;
79074;SDS011;68476;42.710;23.388;2024-01-07T07:50:38;27.30;;;17.55;;
79074;SDS011;68476;42.710;23.388;2024-01-07T07:53:05;26.30;;;16.00;;
79074;SDS011;68476;42.710;23.388;2024-01-07T07:55:31;22.35;;;14.00;;
79074;SDS011;68476;42.710;23.388;2024-01-07T07:57:56;26.38;;;16.33;;
79074;SDS011;68476;42.710;23.388;2024-01-07T08:00:23;23.05;;;15.02;;
79074;SDS011;68476;42.710;23.388;2024-01-07T08:02:49;20.73;;;14.18;;
79074;SDS011;68476;42.710;23.388;2024-01-07T08:05:14;22.67;;;14.70;;
79074;SDS011;68476;42.710;23.388;2024-01-07T08:07:40;19.95;;;13.90;;
79074;SDS011;68476;42.710;23.388;2024-01-07T08:10:06;21.27;;;14.60;;
79074;SDS011;68476;42.710;23.388;2024-01-07T08:12:33;21.70;;;14.55;;
79074;SDS011;68476;42.710;23.388;2024-01-07T08:14:59;19.23;;;12.77;;
79074;SDS011;68476;42.710;23.388;2024-01-07T08:17:24;20.35;;;12.50;;
79074;SDS011;68476;42.710;23.388;2024-01-07T08:19:50;19.65;;;11.70;;
79074;SDS011;68476;42.710;23.388;2024-01-07T08:22:15;19.35;;;13.35;;
79074;SDS011;68476;42.710;23.388;2024-01-07T08:24:41;24.83;;;14.02;;
79074;SDS011;68476;42.710;23.388;2024-01-07T08:27:07;19.35;;;12.65;;
79074;SDS011;68476;42.710;23.388;2024-01-07T08:29:33;19.80;;;12.15;;
79074;SDS011;68476;42.710;23.388;2024-01-07T08:31:59;23.27;;;13.70;;
79074;SDS011;68476;42.710;23.388;2024-01-07T08:34:24;22.35;;;13.60;;
79074;SDS011;68476;42.710;23.388;2024-01-07T08:36:50;20.90;;;14.63;;
79074;SDS011;68476;42.710;23.388;2024-01-07T08:39:15;22.25;;;15.27;;
79074;SDS011;68476;42.710;23.388;2024-01-07T08:41:41;21.60;;;13.68;;
79074;SDS011;68476;42.710;23.388;2024-01-07T08:44:07;22.10;;;15.02;;
79074;SDS011;68476;42.710;23.388;2024-01-07T08:46:33;20.70;;;13.63;;
79074;SDS011;68476;42.710;23.388;2024-01-07T08:48:59;22.52;;;14.15;;
79074;SDS011;68476;42.710;23.388;2024-01-07T08:51:25;21.02;;;14.27;;
79074;SDS011;68476;42.710;23.388;2024-01-07T08:53:50;20.98;;;13.98;;
79074;SDS011;68476;42.710;23.388;2024-01-07T08:56:16;19.10;;;11.70;;
79074;SDS011;68476;42.710;23.388;2024-01-07T08:58:41;15.55;;;11.30;;
79074;SDS011;68476;42.710;23.388;2024-01-07T09:01:07;13.13;;;9.60;;
79074;SDS011;68476;42.710;23.388;2024-01-07T09:03:33;9.95;;;7.30;;
79074;SDS011;68476;42.710;23.388;2024-01-07T09:05:58;10.50;;;7.50;;
79074;SDS011;68476;42.710;23.388;2024-01-07T09:08:24;10.15;;;8.18;;
79074;SDS011;68476;42.710;23.388;2024-01-07T09:10:49;10.85;;;8.00;;
79074;SDS011;68476;42.710;23.388;2024-01-07T09:13:15;13.60;;;7.80;;
79074;SDS011;68476;42.710;23.388;2024-01-07T09:15:41;10.45;;;7.82;;
79074;SDS011;68476;42.710;23.388;2024-01-07T09:18:06;11.90;;;7.00;;
79074;SDS011;68476;42.710;23.388;2024-01-07T09:20:32;8.48;;;6.25;;
79074;SDS011;68476;42.710;23.388;2024-01-07T09:22:58;9.43;;;6.45;;
79074;SDS011;68476;42.710;23.388;2024-01-07T09:25:24;9.30;;;6.68;;
79074;SDS011;68476;42.710;23.388;2024-01-07T09:27:51;10.43;;;7.80;;
79074;SDS011;68476;42.710;23.388;2024-01-07T09:30:17;11.63;;;6.90;;
79074;SDS011;68476;42.710;23.388;2024-01-07T09:32:43;7.95;;;6.50;;
79074;SDS011;68476;42.710;23.388;2024-01-07T09:35:09;10.63;;;6.72;;
79074;SDS011;68476;42.710;23.388;2024-01-07T09:37:34;9.95;;;6.63;;
79074;SDS011;68476;42.710;23.388;2024-01-07T09:40:03;10.02;;;7.45;;
79074;SDS011;68476;42.710;23.388;2024-01-07T09:42:32;9.82;;;7.13;;
79074;SDS011;68476;42.710;23.388;2024-01-07T09:45:00;9.10;;;7.43;;
79074;SDS011;68476;42.710;23.388;2024-01-07T09:47:28;12.00;;;7.55;;
79074;SDS011;68476;42.710;23.388;2024-01-07T09:49:53;11.25;;;7.32;;
79074;SDS011;68476;42.710;23.388;2024-01-07T09:52:19;9.00;;;7.20;;
79074;SDS011;68476;42.710;23.388;2024-01-07T09:54:45;10.55;;;7.88;;
79074;SDS011;68476;42.710;23.388;2024-01-07T09:57:16;11.52;;;7.10;;
79074;SDS011;68476;42.710;23.388;2024-01-07T09:59:41;8.68;;;5.47;;
79074;SDS011;68476;42.710;23.388;2024-01-07T10:02:07;9.23;;;6.68;;
79074;SDS011;68476;42.710;23.388;2024-01-07T10:04:32;8.88;;;6.55;;
79074;SDS011;68476;42.710;23.388;2024-01-07T10:06:58;9.32;;;7.45;;
79074;SDS011;68476;42.710;23.388;2024-01-07T10:09:24;9.20;;;7.10;;
79074;SDS011;68476;42.710;23.388;2024-01-07T10:11:54;9.77;;;7.40;;
79074;SDS011;68476;42.710;23.388;2024-01-07T10:14:20;7.15;;;5.97;;
79074;SDS011;68476;42.710;23.388;2024-01-07T10:16:49;8.77;;;6.45;;
79074;SDS011;68476;42.710;23.388;2024-01-07T10:19:21;8.80;;;7.25;;
79074;SDS011;68476;42.710;23.388;2024-01-07T10:24:26;11.23;;;7.57;;
79074;SDS011;68476;42.710;23.388;2024-01-07T10:27:00;9.98;;;6.72;;
79074;SDS011;68476;42.710;23.388;2024-01-07T10:29:26;9.85;;;6.97;;
79074;SDS011;68476;42.710;23.388;2024-01-07T10:31:52;11.05;;;7.25;;
79074;SDS011;68476;42.710;23.388;2024-01-07T10:34:20;11.70;;;7.22;;
79074;SDS011;68476;42.710;23.388;2024-01-07T10:36:49;9.23;;;7.05;;
79074;SDS011;68476;42.710;23.388;2024-01-07T10:41:44;10.25;;;8.23;;
79074;SDS011;68476;42.710;23.388;2024-01-07T10:44:11;12.00;;;8.95;;
79074;SDS011;68476;42.710;23.388;2024-01-07T10:46:37;13.23;;;9.52;;
79074;SDS011;68476;42.710;23.388;2024-01-07T10:49:05;13.98;;;10.63;;
79074;SDS011;68476;42.710;23.388;2024-01-07T10:51:38;16.13;;;11.43;;
79074;SDS011;68476;42.710;23.388;2024-01-07T10:54:05;15.10;;;11.10;;
79074;SDS011;68476;42.710;23.388;2024-01-07T10:56:35;14.07;;;10.60;;
79074;SDS011;68476;42.710;23.388;2024-01-07T10:59:07;13.40;;;10.63;;
79074;SDS011;68476;42.710;23.388;2024-01-07T11:01:33;16.23;;;11.43;;
79074;SDS011;68476;42.710;23.388;2024-01-07T11:04:17;17.42;;;12.10;;
79074;SDS011;68476;42.710;23.388;2024-01-07T11:06:52;15.05;;;11.90;;
79074;SDS011;68476;42.710;23.388;2024-01-07T11:12:21;15.93;;;12.45;;
79074;SDS011;68476;42.710;23.388;2024-01-07T11:14:47;16.40;;;11.82;;
79074;SDS011;68476;42.710;23.388;2024-01-07T11:20:11;13.93;;;10.70;;
79074;SDS011;68476;42.710;23.388;2024-01-07T11:22:39;14.07;;;9.98;;
79074;SDS011;68476;42.710;23.388;2024-01-07T11:25:27;14.45;;;9.45;;
79074;SDS011;68476;42.710;23.388;2024-01-07T11:27:55;13.13;;;9.55;;
79074;SDS011;68476;42.710;23.388;2024-01-07T11:30:22;11.25;;;8.20;;
79074;SDS011;68476;42.710;23.388;2024-01-07T11:32:48;12.02;;;7.55;;
79074;SDS011;68476;42.710;23.388;2024-01-07T11:35:13;9.02;;;7.00;;
79074;SDS011;68476;42.710;23.388;2024-01-07T11:37:40;9.98;;;6.50;;
79074;SDS011;68476;42.710;23.388;2024-01-07T11:40:06;9.68;;;5.88;;
79074;SDS011;68476;42.710;23.388;2024-01-07T11:42:33;8.00;;;5.40;;
79074;SDS011;68476;42.710;23.388;2024-01-07T11:44:59;6.53;;;4.53;;
79074;SDS011;68476;42.710;23.388;2024-01-07T11:47:24;8.30;;;5.60;;
79074;SDS011;68476;42.710;23.388;2024-01-07T11:49:53;8.52;;;6.10;;
79074;SDS011;68476;42.710;23.388;2024-01-07T11:52:19;7.70;;;5.20;;
79074;SDS011;68476;42.710;23.388;2024-01-07T11:54:45;10.45;;;6.15;;
79074;SDS011;68476;42.710;23.388;2024-01-07T11:57:12;8.18;;;5.88;;
79074;SDS011;68476;42.710;23.388;2024-01-07T11:59:38;8.38;;;5.97;;
79074;SDS011;68476;42.710;23.388;2024-01-07T12:02:04;10.32;;;5.90;;
79074;SDS011;68476;42.710;23.388;2024-01-07T12:04:32;11.10;;;7.53;;
79074;SDS011;68476;42.710;23.388;2024-01-07T12:06:59;11.32;;;8.50;;
79074;SDS011;68476;42.710;23.388;2024-01-07T12:09:25;15.18;;;11.20;;
79074;SDS011;68476;42.710;23.388;2024-01-07T12:11:51;22.83;;;13.65;;
79074;SDS011;68476;42.710;23.388;2024-01-07T12:14:17;19.25;;;12.77;;
79074;SDS011;68476;42.710;23.388;2024-01-07T12:16:44;16.25;;;11.52;;
79074;SDS011;68476;42.710;23.388;2024-01-07T12:19:10;15.60;;;10.15;;
79074;SDS011;68476;42.710;23.388;2024-01-07T12:21:36;8.63;;;5.20;;
79074;SDS011;68476;42.710;23.388;2024-01-07T12:24:03;7.05;;;4.25;;
79074;SDS011;68476;42.710;23.388;2024-01-07T12:26:29;8.65;;;5.85;;
79074;SDS011;68476;42.710;23.388;2024-01-07T12:28:55;7.85;;;5.60;;
79074;SDS011;68476;42.710;23.388;2024-01-07T12:31:28;9.40;;;6.13;;
79074;SDS011;68476;42.710;23.388;2024-01-07T12:36:22;8.60;;;5.72;;
79074;SDS011;68476;42.710;23.388;2024-01-07T12:38:48;8.30;;;5.70;;
79074;SDS011;68476;42.710;23.388;2024-01-07T12:41:14;8.15;;;5.35;;
79074;SDS011;68476;42.710;23.388;2024-01-07T12:43:40;7.25;;;5.20;;
79074;SDS011;68476;42.710;23.388;2024-01-07T12:46:05;7.18;;;5.13;;
79074;SDS011;68476;42.710;23.388;2024-01-07T12:48:32;11.85;;;6.07;;
79074;SDS011;68476;42.710;23.388;2024-01-07T12:50:58;8.77;;;4.93;;
79074;SDS011;68476;42.710;23.388;2024-01-07T12:53:23;7.53;;;4.88;;
79074;SDS011;68476;42.710;23.388;2024-01-07T12:55:49;7.70;;;4.88;;
79074;SDS011;68476;42.710;23.388;2024-01-07T12:58:15;10.52;;;5.95;;
79074;SDS011;68476;42.710;23.388;2024-01-07T13:00:42;9.73;;;7.05;;
79074;SDS011;68476;42.710;23.388;2024-01-07T13:03:08;11.90;;;7.00;;
79074;SDS011;68476;42.710;23.388;2024-01-07T13:05:38;11.30;;;7.63;;
79074;SDS011;68476;42.710;23.388;2024-01-07T13:08:04;9.68;;;7.57;;
79074;SDS011;68476;42.710;23.388;2024-01-07T13:10:30;8.45;;;5.47;;
79074;SDS011;68476;42.710;23.388;2024-01-07T13:12:55;9.90;;;5.70;;
79074;SDS011;68476;42.710;23.388;2024-01-07T13:15:21;13.63;;;7.38;;
79074;SDS011;68476;42.710;23.388;2024-01-07T13:17:47;10.40;;;7.57;;
79074;SDS011;68476;42.710;23.388;2024-01-07T13:20:13;12.02;;;7.85;;
79074;SDS011;68476;42.710;23.388;2024-01-07T13:22:39;16.50;;;10.07;;
79074;SDS011;68476;42.710;23.388;2024-01-07T13:25:05;17.52;;;8.80;;
79074;SDS011;68476;42.710;23.388;2024-01-07T13:27:31;15.05;;;8.68;;
79074;SDS011;68476;42.710;23.388;2024-01-07T13:29:58;17.85;;;10.55;;
79074;SDS011;68476;42.710;23.388;2024-01-07T13:32:24;20.20;;;13.77;;
79074;SDS011;68476;42.710;23.388;2024-01-07T13:34:49;22.90;;;14.65;;
79074;SDS011;68476;42.710;23.388;2024-01-07T13:37:15;22.90;;;16.00;;
79074;SDS011;68476;42.710;23.388;2024-01-07T13:39:40;28.95;;;16.35;;
79074;SDS011;68476;42.710;23.388;2024-01-07T13:42:06;26.02;;;17.90;;
79074;SDS011;68476;42.710;23.388;2024-01-07T13:44:32;26.65;;;16.83;;
79074;SDS011;68476;42.710;23.388;2024-01-07T13:46:59;32.72;;;20.45;;
79074;SDS011;68476;42.710;23.388;2024-01-07T13:49:26;28.10;;;18.92;;
79074;SDS011;68476;42.710;23.388;2024-01-07T13:51:52;33.42;;;19.52;;
79074;SDS011;68476;42.710;23.388;2024-01-07T13:54:18;28.63;;;16.83;;
79074;SDS011;68476;42.710;23.388;2024-01-07T13:56:43;28.88;;;18.38;;
79074;SDS011;68476;42.710;23.388;2024-01-07T13:59:10;30.13;;;17.65;;
79074;SDS011;68476;42.710;23.388;2024-01-07T14:01:36;29.08;;;17.60;;
79074;SDS011;68476;42.710;23.388;2024-01-07T14:04:02;29.13;;;17.77;;
79074;SDS011;68476;42.710;23.388;2024-01-07T14:06:28;32.17;;;18.33;;
79074;SDS011;68476;42.710;23.388;2024-01-07T14:08:54;26.17;;;16.55;;
79074;SDS011;68476;42.710;23.388;2024-01-07T14:11:19;26.15;;;18.23;;
79074;SDS011;68476;42.710;23.388;2024-01-07T14:13:45;22.23;;;14.05;;
79074;SDS011;68476;42.710;23.388;2024-01-07T14:16:11;19.40;;;12.32;;
79074;SDS011;68476;42.710;23.388;2024-01-07T14:21:06;16.08;;;10.73;;
79074;SDS011;68476;42.710;23.388;2024-01-07T14:23:32;16.95;;;11.35;;